sensor_id;sensor_type;location;lat;lon;timestamp;P1;durP1;ratioP1;P2;durP2;ratioP2
59607;SDS011;45426;44.726;10.390;2022-09-13T00:00:38;5.43;;;3.22;;
59607;SDS011;45426;44.726;10.390;2022-09-13T00:03:05;7.78;;;3.35;;
59607;SDS011;45426;44.726;10.390;2022-09-13T00:05:32;6.63;;;3.08;;
59607;SDS011;45426;44.726;10.390;2022-09-13T00:08:00;10.30;;;3.42;;
59607;SDS011;45426;44.726;10.390;2022-09-13T00:10:26;5.35;;;2.95;;
59607;SDS011;45426;44.726;10.390;2022-09-13T00:12:52;6.65;;;3.30;;
59607;SDS011;45426;44.726;10.390;2022-09-13T00:15:18;5.38;;;3.08;;
59607;SDS011;45426;44.726;10.390;2022-09-13T00:17:46;6.07;;;2.95;;
59607;SDS011;45426;44.726;10.390;2022-09-13T00:20:17;4.43;;;3.10;;
59607;SDS011;45426;44.726;10.390;2022-09-13T00:22:45;6.00;;;3.20;;
59607;SDS011;45426;44.726;10.390;2022-09-13T00:25:11;5.40;;;2.92;;
59607;SDS011;45426;44.726;10.390;2022-09-13T00:27:36;5.47;;;3.10;;
59607;SDS011;45426;44.726;10.390;2022-09-13T00:30:06;6.90;;;3.00;;
59607;SDS011;45426;44.726;10.390;2022-09-13T00:32:33;6.10;;;3.30;;
59607;SDS011;45426;44.726;10.390;2022-09-13T00:34:59;3.70;;;2.70;;
59607;SDS011;45426;44.726;10.390;2022-09-13T00:37:25;7.65;;;3.40;;
59607;SDS011;45426;44.726;10.390;2022-09-13T00:39:50;6.40;;;2.92;;
59607;SDS011;45426;44.726;10.390;2022-09-13T00:42:16;9.00;;;3.35;;
59607;SDS011;45426;44.726;10.390;2022-09-13T00:47:14;9.40;;;3.70;;
59607;SDS011;45426;44.726;10.390;2022-09-13T00:49:48;6.43;;;3.42;;
59607;SDS011;45426;44.726;10.390;2022-09-13T00:52:17;9.18;;;3.63;;
59607;SDS011;45426;44.726;10.390;2022-09-13T00:54:49;6.78;;;3.40;;
59607;SDS011;45426;44.726;10.390;2022-09-13T00:57:22;5.20;;;3.33;;
59607;SDS011;45426;44.726;10.390;2022-09-13T00:59:55;8.38;;;3.83;;
59607;SDS011;45426;44.726;10.390;2022-09-13T01:02:37;8.40;;;3.45;;
59607;SDS011;45426;44.726;10.390;2022-09-13T01:05:05;7.25;;;4.07;;
59607;SDS011;45426;44.726;10.390;2022-09-13T01:07:32;6.72;;;3.75;;
59607;SDS011;45426;44.726;10.390;2022-09-13T01:09:58;7.20;;;4.00;;
59607;SDS011;45426;44.726;10.390;2022-09-13T01:12:25;8.23;;;4.07;;
59607;SDS011;45426;44.726;10.390;2022-09-13T01:14:59;7.63;;;3.70;;
59607;SDS011;45426;44.726;10.390;2022-09-13T01:17:28;6.65;;;3.60;;
59607;SDS011;45426;44.726;10.390;2022-09-13T01:19:55;8.55;;;3.40;;
59607;SDS011;45426;44.726;10.390;2022-09-13T01:33:44;5.82;;;3.10;;
59607;SDS011;45426;44.726;10.390;2022-09-13T01:42:10;5.32;;;3.30;;
59607;SDS011;45426;44.726;10.390;2022-09-13T01:49:53;6.03;;;3.30;;
59607;SDS011;45426;44.726;10.390;2022-09-13T01:52:34;7.45;;;3.13;;
59607;SDS011;45426;44.726;10.390;2022-09-13T01:57:52;6.18;;;3.58;;
59607;SDS011;45426;44.726;10.390;2022-09-13T02:00:27;7.32;;;3.50;;
59607;SDS011;45426;44.726;10.390;2022-09-13T02:03:05;7.10;;;3.45;;
59607;SDS011;45426;44.726;10.390;2022-09-13T02:05:51;7.93;;;3.35;;
59607;SDS011;45426;44.726;10.390;2022-09-13T02:11:14;5.60;;;3.45;;
59607;SDS011;45426;44.726;10.390;2022-09-13T02:13:48;9.38;;;3.60;;
59607;SDS011;45426;44.726;10.390;2022-09-13T02:22:07;5.63;;;3.25;;
59607;SDS011;45426;44.726;10.390;2022-09-13T02:24:41;7.20;;;3.63;;
59607;SDS011;45426;44.726;10.390;2022-09-13T02:27:14;7.05;;;3.13;;
59607;SDS011;45426;44.726;10.390;2022-09-13T02:34:53;6.63;;;3.28;;
59607;SDS011;45426;44.726;10.390;2022-09-13T02:37:29;5.22;;;3.15;;
59607;SDS011;45426;44.726;10.390;2022-09-13T02:40:02;5.78;;;3.38;;
59607;SDS011;45426;44.726;10.390;2022-09-13T02:42:41;8.05;;;3.67;;
59607;SDS011;45426;44.726;10.390;2022-09-13T02:45:09;6.93;;;3.53;;
59607;SDS011;45426;44.726;10.390;2022-09-13T02:47:55;6.40;;;3.75;;
59607;SDS011;45426;44.726;10.390;2022-09-13T02:58:46;7.40;;;3.40;;
59607;SDS011;45426;44.726;10.390;2022-09-13T03:01:20;5.68;;;3.50;;
59607;SDS011;45426;44.726;10.390;2022-09-13T03:03:47;8.10;;;4.10;;
59607;SDS011;45426;44.726;10.390;2022-09-13T03:06:20;6.28;;;3.67;;
59607;SDS011;45426;44.726;10.390;2022-09-13T03:08:47;5.45;;;3.25;;
59607;SDS011;45426;44.726;10.390;2022-09-13T03:31:20;5.20;;;2.97;;
59607;SDS011;45426;44.726;10.390;2022-09-13T03:34:14;6.32;;;3.03;;
59607;SDS011;45426;44.726;10.390;2022-09-13T03:36:54;5.82;;;2.95;;
59607;SDS011;45426;44.726;10.390;2022-09-13T03:39:35;6.18;;;2.83;;
59607;SDS011;45426;44.726;10.390;2022-09-13T03:42:05;4.75;;;2.60;;
59607;SDS011;45426;44.726;10.390;2022-09-13T03:44:46;5.47;;;2.50;;
59607;SDS011;45426;44.726;10.390;2022-09-13T03:47:14;3.53;;;2.58;;
59607;SDS011;45426;44.726;10.390;2022-09-13T03:49:42;5.78;;;2.53;;
59607;SDS011;45426;44.726;10.390;2022-09-13T03:52:08;5.80;;;2.75;;
59607;SDS011;45426;44.726;10.390;2022-09-13T03:54:35;5.22;;;2.47;;
59607;SDS011;45426;44.726;10.390;2022-09-13T03:57:06;6.40;;;2.42;;
59607;SDS011;45426;44.726;10.390;2022-09-13T03:59:32;5.07;;;2.60;;
59607;SDS011;45426;44.726;10.390;2022-09-13T04:02:00;5.70;;;2.80;;
59607;SDS011;45426;44.726;10.390;2022-09-13T04:04:26;6.68;;;2.70;;
59607;SDS011;45426;44.726;10.390;2022-09-13T04:06:52;5.57;;;2.80;;
59607;SDS011;45426;44.726;10.390;2022-09-13T04:09:20;5.22;;;3.05;;
59607;SDS011;45426;44.726;10.390;2022-09-13T04:11:46;7.20;;;3.10;;
59607;SDS011;45426;44.726;10.390;2022-09-13T04:14:12;6.88;;;3.20;;
59607;SDS011;45426;44.726;10.390;2022-09-13T04:16:40;5.13;;;3.05;;
59607;SDS011;45426;44.726;10.390;2022-09-13T04:19:07;4.32;;;3.00;;
59607;SDS011;45426;44.726;10.390;2022-09-13T04:21:35;6.63;;;3.55;;
59607;SDS011;45426;44.726;10.390;2022-09-13T04:24:04;10.20;;;3.42;;
59607;SDS011;45426;44.726;10.390;2022-09-13T04:26:30;6.93;;;3.30;;
59607;SDS011;45426;44.726;10.390;2022-09-13T04:28:55;4.85;;;3.20;;
59607;SDS011;45426;44.726;10.390;2022-09-13T04:31:20;6.65;;;3.30;;
59607;SDS011;45426;44.726;10.390;2022-09-13T04:33:46;7.30;;;3.20;;
59607;SDS011;45426;44.726;10.390;2022-09-13T04:36:13;7.20;;;3.00;;
59607;SDS011;45426;44.726;10.390;2022-09-13T04:38:41;5.18;;;3.13;;
59607;SDS011;45426;44.726;10.390;2022-09-13T04:41:07;7.35;;;3.13;;
59607;SDS011;45426;44.726;10.390;2022-09-13T04:43:33;6.18;;;3.45;;
59607;SDS011;45426;44.726;10.390;2022-09-13T04:45:59;8.20;;;3.20;;
59607;SDS011;45426;44.726;10.390;2022-09-13T04:48:27;7.80;;;3.28;;
59607;SDS011;45426;44.726;10.390;2022-09-13T04:50:59;7.47;;;3.05;;
59607;SDS011;45426;44.726;10.390;2022-09-13T04:53:25;5.43;;;3.20;;
59607;SDS011;45426;44.726;10.390;2022-09-13T04:56:11;6.40;;;2.92;;
59607;SDS011;45426;44.726;10.390;2022-09-13T04:58:39;5.40;;;3.35;;
59607;SDS011;45426;44.726;10.390;2022-09-13T05:01:05;6.07;;;3.10;;
59607;SDS011;45426;44.726;10.390;2022-09-13T05:03:33;7.75;;;3.55;;
59607;SDS011;45426;44.726;10.390;2022-09-13T05:06:09;7.05;;;3.20;;
59607;SDS011;45426;44.726;10.390;2022-09-13T05:08:36;6.93;;;3.00;;
59607;SDS011;45426;44.726;10.390;2022-09-13T05:11:02;4.82;;;3.10;;
59607;SDS011;45426;44.726;10.390;2022-09-13T05:13:29;10.40;;;3.20;;
59607;SDS011;45426;44.726;10.390;2022-09-13T05:15:58;5.57;;;3.03;;
59607;SDS011;45426;44.726;10.390;2022-09-13T05:18:26;7.20;;;3.20;;
59607;SDS011;45426;44.726;10.390;2022-09-13T05:20:59;10.10;;;3.30;;
59607;SDS011;45426;44.726;10.390;2022-09-13T05:23:26;6.55;;;2.92;;
59607;SDS011;45426;44.726;10.390;2022-09-13T05:25:57;7.72;;;3.08;;
59607;SDS011;45426;44.726;10.390;2022-09-13T05:28:25;6.43;;;3.00;;
59607;SDS011;45426;44.726;10.390;2022-09-13T05:30:53;5.90;;;3.00;;
59607;SDS011;45426;44.726;10.390;2022-09-13T05:33:33;6.55;;;3.10;;
59607;SDS011;45426;44.726;10.390;2022-09-13T05:36:01;9.65;;;3.05;;
59607;SDS011;45426;44.726;10.390;2022-09-13T05:38:26;7.80;;;2.97;;
59607;SDS011;45426;44.726;10.390;2022-09-13T05:40:52;4.57;;;2.65;;
59607;SDS011;45426;44.726;10.390;2022-09-13T05:43:21;6.28;;;2.75;;
59607;SDS011;45426;44.726;10.390;2022-09-13T05:45:47;6.13;;;3.00;;
59607;SDS011;45426;44.726;10.390;2022-09-13T05:48:12;4.90;;;2.50;;
59607;SDS011;45426;44.726;10.390;2022-09-13T05:50:38;7.90;;;2.88;;
59607;SDS011;45426;44.726;10.390;2022-09-13T05:53:04;6.70;;;2.70;;
59607;SDS011;45426;44.726;10.390;2022-09-13T05:55:30;7.28;;;2.90;;
59607;SDS011;45426;44.726;10.390;2022-09-13T05:57:55;5.40;;;2.60;;
59607;SDS011;45426;44.726;10.390;2022-09-13T06:00:22;7.55;;;2.60;;
59607;SDS011;45426;44.726;10.390;2022-09-13T06:02:47;8.82;;;2.80;;
59607;SDS011;45426;44.726;10.390;2022-09-13T06:05:13;4.35;;;2.22;;
59607;SDS011;45426;44.726;10.390;2022-09-13T06:07:39;8.52;;;2.67;;
59607;SDS011;45426;44.726;10.390;2022-09-13T06:10:06;6.32;;;2.30;;
59607;SDS011;45426;44.726;10.390;2022-09-13T06:12:32;6.25;;;2.67;;
59607;SDS011;45426;44.726;10.390;2022-09-13T06:14:57;6.35;;;2.55;;
59607;SDS011;45426;44.726;10.390;2022-09-13T06:17:23;7.68;;;2.42;;
59607;SDS011;45426;44.726;10.390;2022-09-13T06:19:48;6.55;;;2.50;;
59607;SDS011;45426;44.726;10.390;2022-09-13T06:22:14;7.15;;;2.40;;
59607;SDS011;45426;44.726;10.390;2022-09-13T06:24:39;7.00;;;2.60;;
59607;SDS011;45426;44.726;10.390;2022-09-13T06:27:04;6.07;;;2.42;;
59607;SDS011;45426;44.726;10.390;2022-09-13T06:29:30;10.07;;;2.22;;
59607;SDS011;45426;44.726;10.390;2022-09-13T06:31:55;7.20;;;2.40;;
59607;SDS011;45426;44.726;10.390;2022-09-13T06:34:21;7.72;;;2.47;;
59607;SDS011;45426;44.726;10.390;2022-09-13T06:36:46;8.70;;;2.40;;
59607;SDS011;45426;44.726;10.390;2022-09-13T06:39:12;6.88;;;2.53;;
59607;SDS011;45426;44.726;10.390;2022-09-13T06:41:37;6.05;;;2.75;;
59607;SDS011;45426;44.726;10.390;2022-09-13T06:44:02;5.43;;;2.13;;
59607;SDS011;45426;44.726;10.390;2022-09-13T06:46:29;6.07;;;2.28;;
59607;SDS011;45426;44.726;10.390;2022-09-13T06:49:02;7.18;;;2.00;;
59607;SDS011;45426;44.726;10.390;2022-09-13T06:51:29;7.50;;;2.00;;
59607;SDS011;45426;44.726;10.390;2022-09-13T06:53:56;5.70;;;1.90;;
59607;SDS011;45426;44.726;10.390;2022-09-13T06:59:03;7.77;;;1.80;;
59607;SDS011;45426;44.726;10.390;2022-09-13T07:01:34;4.82;;;1.80;;
59607;SDS011;45426;44.726;10.390;2022-09-13T07:04:03;7.45;;;1.83;;
59607;SDS011;45426;44.726;10.390;2022-09-13T07:06:31;6.88;;;1.90;;
59607;SDS011;45426;44.726;10.390;2022-09-13T07:08:58;7.70;;;1.95;;
59607;SDS011;45426;44.726;10.390;2022-09-13T07:11:26;5.50;;;2.03;;
59607;SDS011;45426;44.726;10.390;2022-09-13T07:13:54;6.38;;;1.50;;
59607;SDS011;45426;44.726;10.390;2022-09-13T07:16:23;7.95;;;1.88;;
59607;SDS011;45426;44.726;10.390;2022-09-13T07:18:53;5.00;;;1.70;;
59607;SDS011;45426;44.726;10.390;2022-09-13T07:21:19;3.15;;;1.70;;
59607;SDS011;45426;44.726;10.390;2022-09-13T07:23:46;4.35;;;1.75;;
59607;SDS011;45426;44.726;10.390;2022-09-13T07:26:12;3.75;;;1.73;;
59607;SDS011;45426;44.726;10.390;2022-09-13T07:28:40;4.72;;;1.85;;
59607;SDS011;45426;44.726;10.390;2022-09-13T07:31:11;3.75;;;1.90;;
59607;SDS011;45426;44.726;10.390;2022-09-13T07:33:39;6.15;;;1.90;;
59607;SDS011;45426;44.726;10.390;2022-09-13T07:36:06;3.28;;;2.20;;
59607;SDS011;45426;44.726;10.390;2022-09-13T07:38:33;5.72;;;2.67;;
59607;SDS011;45426;44.726;10.390;2022-09-13T07:41:03;5.68;;;2.50;;
59607;SDS011;45426;44.726;10.390;2022-09-13T07:43:31;6.35;;;2.30;;
59607;SDS011;45426;44.726;10.390;2022-09-13T07:45:59;5.90;;;2.75;;
59607;SDS011;45426;44.726;10.390;2022-09-13T07:48:26;3.72;;;2.60;;
59607;SDS011;45426;44.726;10.390;2022-09-13T07:50:59;6.00;;;3.13;;
59607;SDS011;45426;44.726;10.390;2022-09-13T07:53:27;7.43;;;2.80;;
59607;SDS011;45426;44.726;10.390;2022-09-13T07:55:53;7.45;;;3.20;;
59607;SDS011;45426;44.726;10.390;2022-09-13T07:58:23;6.25;;;2.70;;
59607;SDS011;45426;44.726;10.390;2022-09-13T08:00:48;7.30;;;2.75;;
59607;SDS011;45426;44.726;10.390;2022-09-13T08:03:14;10.40;;;3.10;;
59607;SDS011;45426;44.726;10.390;2022-09-13T08:05:40;6.15;;;2.58;;
59607;SDS011;45426;44.726;10.390;2022-09-13T08:08:06;10.35;;;3.15;;
59607;SDS011;45426;44.726;10.390;2022-09-13T08:10:32;9.05;;;2.88;;
59607;SDS011;45426;44.726;10.390;2022-09-13T08:12:58;8.20;;;3.38;;
59607;SDS011;45426;44.726;10.390;2022-09-13T08:15:24;9.48;;;3.00;;
59607;SDS011;45426;44.726;10.390;2022-09-13T08:17:52;10.70;;;3.10;;
59607;SDS011;45426;44.726;10.390;2022-09-13T08:20:22;9.55;;;3.30;;
59607;SDS011;45426;44.726;10.390;2022-09-13T08:22:48;9.15;;;3.58;;
59607;SDS011;45426;44.726;10.390;2022-09-13T08:25:13;8.18;;;3.50;;
59607;SDS011;45426;44.726;10.390;2022-09-13T08:27:39;6.72;;;3.20;;
59607;SDS011;45426;44.726;10.390;2022-09-13T08:30:04;8.23;;;3.40;;
59607;SDS011;45426;44.726;10.390;2022-09-13T08:32:30;6.88;;;2.80;;
59607;SDS011;45426;44.726;10.390;2022-09-13T08:34:55;9.00;;;3.22;;
59607;SDS011;45426;44.726;10.390;2022-09-13T08:37:21;9.80;;;3.13;;
59607;SDS011;45426;44.726;10.390;2022-09-13T08:39:48;8.85;;;3.47;;
59607;SDS011;45426;44.726;10.390;2022-09-13T08:44:53;11.00;;;3.70;;
59607;SDS011;45426;44.726;10.390;2022-09-13T08:52:50;7.32;;;3.22;;
59607;SDS011;45426;44.726;10.390;2022-09-13T08:55:42;8.15;;;3.25;;
59607;SDS011;45426;44.726;10.390;2022-09-13T09:01:07;7.00;;;2.88;;
59607;SDS011;45426;44.726;10.390;2022-09-13T09:06:22;8.55;;;2.92;;
59607;SDS011;45426;44.726;10.390;2022-09-13T09:08:52;8.93;;;2.88;;
59607;SDS011;45426;44.726;10.390;2022-09-13T09:16:50;6.53;;;2.78;;
59607;SDS011;45426;44.726;10.390;2022-09-13T09:22:10;7.60;;;2.95;;
59607;SDS011;45426;44.726;10.390;2022-09-13T09:24:41;10.35;;;2.90;;
59607;SDS011;45426;44.726;10.390;2022-09-13T09:27:15;9.15;;;2.92;;
59607;SDS011;45426;44.726;10.390;2022-09-13T09:29:42;6.55;;;2.78;;
59607;SDS011;45426;44.726;10.390;2022-09-13T09:37:49;6.93;;;3.33;;
59607;SDS011;45426;44.726;10.390;2022-09-13T09:40:30;6.47;;;2.80;;
59607;SDS011;45426;44.726;10.390;2022-09-13T09:42:58;12.60;;;3.20;;
59607;SDS011;45426;44.726;10.390;2022-09-13T09:45:26;6.97;;;2.60;;
59607;SDS011;45426;44.726;10.390;2022-09-13T09:47:54;7.82;;;3.22;;
59607;SDS011;45426;44.726;10.390;2022-09-13T09:50:24;9.38;;;3.83;;
59607;SDS011;45426;44.726;10.390;2022-09-13T09:55:29;10.00;;;4.65;;
59607;SDS011;45426;44.726;10.390;2022-09-13T10:00:28;9.55;;;3.45;;
59607;SDS011;45426;44.726;10.390;2022-09-13T10:02:57;7.53;;;3.47;;
59607;SDS011;45426;44.726;10.390;2022-09-13T10:05:25;7.70;;;3.17;;
59607;SDS011;45426;44.726;10.390;2022-09-13T10:08:01;7.95;;;3.80;;
59607;SDS011;45426;44.726;10.390;2022-09-13T10:13:17;6.55;;;2.90;;
59607;SDS011;45426;44.726;10.390;2022-09-13T10:15:51;9.68;;;3.67;;
59607;SDS011;45426;44.726;10.390;2022-09-13T10:18:19;14.70;;;4.40;;
59607;SDS011;45426;44.726;10.390;2022-09-13T10:21:00;10.38;;;4.68;;
59607;SDS011;45426;44.726;10.390;2022-09-13T10:23:26;7.05;;;3.28;;
59607;SDS011;45426;44.726;10.390;2022-09-13T10:28:35;11.93;;;5.10;;
59607;SDS011;45426;44.726;10.390;2022-09-13T10:31:12;8.43;;;3.57;;
59607;SDS011;45426;44.726;10.390;2022-09-13T10:36:22;9.43;;;4.70;;
59607;SDS011;45426;44.726;10.390;2022-09-13T10:38:56;6.95;;;3.88;;
59607;SDS011;45426;44.726;10.390;2022-09-13T10:41:29;10.07;;;3.45;;
59607;SDS011;45426;44.726;10.390;2022-09-13T10:44:01;10.80;;;4.60;;
59607;SDS011;45426;44.726;10.390;2022-09-13T10:46:30;9.38;;;4.47;;
59607;SDS011;45426;44.726;10.390;2022-09-13T10:48:58;11.40;;;4.22;;
59607;SDS011;45426;44.726;10.390;2022-09-13T10:54:34;9.95;;;4.55;;
59607;SDS011;45426;44.726;10.390;2022-09-13T10:56:47;12.97;;;5.60;;
59607;SDS011;45426;44.726;10.390;2022-09-13T11:01:47;13.00;;;6.13;;
59607;SDS011;45426;44.726;10.390;2022-09-13T11:07:15;6.15;;;3.20;;
59607;SDS011;45426;44.726;10.390;2022-09-13T11:10:02;10.40;;;4.32;;
59607;SDS011;45426;44.726;10.390;2022-09-13T11:15:06;8.73;;;3.97;;
59607;SDS011;45426;44.726;10.390;2022-09-13T11:18:03;7.47;;;3.57;;
59607;SDS011;45426;44.726;10.390;2022-09-13T11:23:29;11.80;;;3.60;;
59607;SDS011;45426;44.726;10.390;2022-09-13T11:50:24;7.40;;;2.90;;
59607;SDS011;45426;44.726;10.390;2022-09-13T11:56:08;7.32;;;4.40;;
59607;SDS011;45426;44.726;10.390;2022-09-13T11:59:14;9.82;;;4.10;;
59607;SDS011;45426;44.726;10.390;2022-09-13T12:01:53;8.10;;;3.58;;
59607;SDS011;45426;44.726;10.390;2022-09-13T12:04:22;7.32;;;3.00;;
59607;SDS011;45426;44.726;10.390;2022-09-13T12:06:59;6.32;;;2.70;;
59607;SDS011;45426;44.726;10.390;2022-09-13T12:09:30;7.28;;;3.67;;
59607;SDS011;45426;44.726;10.390;2022-09-13T12:12:08;7.85;;;3.33;;
59607;SDS011;45426;44.726;10.390;2022-09-13T12:14:46;6.95;;;4.25;;
59607;SDS011;45426;44.726;10.390;2022-09-13T12:17:28;9.57;;;3.22;;
59607;SDS011;45426;44.726;10.390;2022-09-13T12:20:01;8.77;;;3.95;;
59607;SDS011;45426;44.726;10.390;2022-09-13T12:22:31;6.35;;;3.20;;
59607;SDS011;45426;44.726;10.390;2022-09-13T12:25:01;6.68;;;3.38;;
59607;SDS011;45426;44.726;10.390;2022-09-13T12:27:42;7.90;;;3.67;;
59607;SDS011;45426;44.726;10.390;2022-09-13T12:32:40;6.97;;;3.53;;
59607;SDS011;45426;44.726;10.390;2022-09-13T12:43:34;6.90;;;3.40;;
59607;SDS011;45426;44.726;10.390;2022-09-13T12:46:13;9.02;;;2.90;;
59607;SDS011;45426;44.726;10.390;2022-09-13T13:02:59;7.30;;;3.08;;
59607;SDS011;45426;44.726;10.390;2022-09-13T13:08:21;17.75;;;3.80;;
59607;SDS011;45426;44.726;10.390;2022-09-13T13:11:02;25.77;;;4.78;;
59607;SDS011;45426;44.726;10.390;2022-09-13T13:13:40;18.73;;;3.60;;
59607;SDS011;45426;44.726;10.390;2022-09-13T13:19:02;8.30;;;3.10;;
59607;SDS011;45426;44.726;10.390;2022-09-13T13:21:47;7.00;;;3.33;;
59607;SDS011;45426;44.726;10.390;2022-09-13T13:29:16;14.65;;;3.20;;
59607;SDS011;45426;44.726;10.390;2022-09-13T13:31:45;8.90;;;3.00;;
59607;SDS011;45426;44.726;10.390;2022-09-13T13:34:46;7.32;;;2.83;;
59607;SDS011;45426;44.726;10.390;2022-09-13T13:39:42;7.70;;;3.22;;
59607;SDS011;45426;44.726;10.390;2022-09-13T13:59:51;5.13;;;2.67;;
59607;SDS011;45426;44.726;10.390;2022-09-13T14:19:45;10.75;;;3.00;;
59607;SDS011;45426;44.726;10.390;2022-09-13T14:22:15;6.50;;;2.67;;
59607;SDS011;45426;44.726;10.390;2022-09-13T14:25:13;9.57;;;3.00;;
59607;SDS011;45426;44.726;10.390;2022-09-13T14:27:40;8.38;;;2.85;;
59607;SDS011;45426;44.726;10.390;2022-09-13T14:33:15;6.03;;;2.63;;
59607;SDS011;45426;44.726;10.390;2022-09-13T14:35:54;6.50;;;2.60;;
59607;SDS011;45426;44.726;10.390;2022-09-13T14:38:23;5.50;;;2.67;;
59607;SDS011;45426;44.726;10.390;2022-09-13T14:40:56;9.40;;;3.05;;
59607;SDS011;45426;44.726;10.390;2022-09-13T14:43:24;8.35;;;2.80;;
59607;SDS011;45426;44.726;10.390;2022-09-13T14:45:53;8.38;;;2.90;;
59607;SDS011;45426;44.726;10.390;2022-09-13T14:48:23;9.18;;;2.80;;
59607;SDS011;45426;44.726;10.390;2022-09-13T14:50:56;6.43;;;2.87;;
59607;SDS011;45426;44.726;10.390;2022-09-13T14:53:27;7.70;;;2.90;;
59607;SDS011;45426;44.726;10.390;2022-09-13T14:56:16;5.15;;;3.10;;
59607;SDS011;45426;44.726;10.390;2022-09-13T14:59:02;6.00;;;2.70;;
59607;SDS011;45426;44.726;10.390;2022-09-13T15:01:33;5.32;;;2.20;;
59607;SDS011;45426;44.726;10.390;2022-09-13T15:04:00;7.03;;;2.63;;
59607;SDS011;45426;44.726;10.390;2022-09-13T15:06:28;8.77;;;3.30;;
59607;SDS011;45426;44.726;10.390;2022-09-13T15:09:25;5.07;;;2.80;;
59607;SDS011;45426;44.726;10.390;2022-09-13T15:17:11;8.32;;;3.00;;
59607;SDS011;45426;44.726;10.390;2022-09-13T15:22:18;5.20;;;2.50;;
59607;SDS011;45426;44.726;10.390;2022-09-13T15:24:48;4.97;;;2.65;;
59607;SDS011;45426;44.726;10.390;2022-09-13T15:27:28;6.22;;;2.70;;
59607;SDS011;45426;44.726;10.390;2022-09-13T15:29:57;9.50;;;2.90;;
59607;SDS011;45426;44.726;10.390;2022-09-13T15:35:15;7.65;;;2.60;;
59607;SDS011;45426;44.726;10.390;2022-09-13T15:37:46;8.02;;;3.05;;
59607;SDS011;45426;44.726;10.390;2022-09-13T15:40:20;5.63;;;2.80;;
59607;SDS011;45426;44.726;10.390;2022-09-13T15:42:47;6.65;;;2.85;;
59607;SDS011;45426;44.726;10.390;2022-09-13T15:45:14;9.00;;;2.80;;
59607;SDS011;45426;44.726;10.390;2022-09-13T15:47:42;7.95;;;2.80;;
59607;SDS011;45426;44.726;10.390;2022-09-13T15:50:13;5.90;;;2.55;;
59607;SDS011;45426;44.726;10.390;2022-09-13T15:52:44;6.95;;;2.65;;
59607;SDS011;45426;44.726;10.390;2022-09-13T15:55:10;6.53;;;2.80;;
59607;SDS011;45426;44.726;10.390;2022-09-13T15:57:35;10.43;;;3.20;;
59607;SDS011;45426;44.726;10.390;2022-09-13T16:00:01;6.28;;;2.78;;
59607;SDS011;45426;44.726;10.390;2022-09-13T16:02:30;8.60;;;3.25;;
59607;SDS011;45426;44.726;10.390;2022-09-13T16:04:57;5.53;;;2.85;;
59607;SDS011;45426;44.726;10.390;2022-09-13T16:07:23;6.70;;;3.03;;
59607;SDS011;45426;44.726;10.390;2022-09-13T16:09:50;8.10;;;2.80;;
59607;SDS011;45426;44.726;10.390;2022-09-13T16:12:16;7.80;;;2.45;;
59607;SDS011;45426;44.726;10.390;2022-09-13T16:14:43;8.27;;;2.95;;
59607;SDS011;45426;44.726;10.390;2022-09-13T16:17:10;4.72;;;2.58;;
59607;SDS011;45426;44.726;10.390;2022-09-13T16:19:38;7.18;;;2.80;;
59607;SDS011;45426;44.726;10.390;2022-09-13T16:22:03;5.78;;;2.58;;
59607;SDS011;45426;44.726;10.390;2022-09-13T16:24:29;12.68;;;2.85;;
59607;SDS011;45426;44.726;10.390;2022-09-13T16:26:55;5.70;;;3.10;;
59607;SDS011;45426;44.726;10.390;2022-09-13T16:29:24;5.00;;;2.83;;
59607;SDS011;45426;44.726;10.390;2022-09-13T16:31:49;5.68;;;2.85;;
59607;SDS011;45426;44.726;10.390;2022-09-13T16:34:15;7.03;;;2.60;;
59607;SDS011;45426;44.726;10.390;2022-09-13T16:36:41;8.77;;;2.75;;
59607;SDS011;45426;44.726;10.390;2022-09-13T16:39:07;10.13;;;3.03;;
59607;SDS011;45426;44.726;10.390;2022-09-13T16:41:32;6.35;;;2.67;;
59607;SDS011;45426;44.726;10.390;2022-09-13T16:43:57;4.97;;;2.95;;
59607;SDS011;45426;44.726;10.390;2022-09-13T16:46:23;12.55;;;3.78;;
59607;SDS011;45426;44.726;10.390;2022-09-13T16:48:52;11.82;;;2.90;;
59607;SDS011;45426;44.726;10.390;2022-09-13T16:51:18;10.25;;;3.10;;
59607;SDS011;45426;44.726;10.390;2022-09-13T16:53:44;7.57;;;3.03;;
59607;SDS011;45426;44.726;10.390;2022-09-13T16:56:13;8.52;;;3.40;;
59607;SDS011;45426;44.726;10.390;2022-09-13T16:58:44;10.18;;;3.17;;
59607;SDS011;45426;44.726;10.390;2022-09-13T17:01:11;9.32;;;3.20;;
59607;SDS011;45426;44.726;10.390;2022-09-13T17:03:38;10.95;;;3.10;;
59607;SDS011;45426;44.726;10.390;2022-09-13T17:06:08;10.73;;;3.40;;
59607;SDS011;45426;44.726;10.390;2022-09-13T17:08:36;6.43;;;3.30;;
59607;SDS011;45426;44.726;10.390;2022-09-13T17:11:04;13.63;;;4.43;;
59607;SDS011;45426;44.726;10.390;2022-09-13T17:13:34;10.13;;;3.40;;
59607;SDS011;45426;44.726;10.390;2022-09-13T17:16:00;10.82;;;3.78;;
59607;SDS011;45426;44.726;10.390;2022-09-13T17:18:26;8.23;;;3.50;;
59607;SDS011;45426;44.726;10.390;2022-09-13T17:20:51;10.63;;;4.03;;
59607;SDS011;45426;44.726;10.390;2022-09-13T17:23:17;10.10;;;3.75;;
59607;SDS011;45426;44.726;10.390;2022-09-13T17:25:44;10.77;;;3.92;;
59607;SDS011;45426;44.726;10.390;2022-09-13T17:28:13;11.50;;;3.65;;
59607;SDS011;45426;44.726;10.390;2022-09-13T17:30:39;11.25;;;4.20;;
59607;SDS011;45426;44.726;10.390;2022-09-13T17:33:05;12.90;;;4.20;;
59607;SDS011;45426;44.726;10.390;2022-09-13T17:35:32;10.38;;;4.22;;
59607;SDS011;45426;44.726;10.390;2022-09-13T17:37:58;12.18;;;4.70;;
59607;SDS011;45426;44.726;10.390;2022-09-13T17:40:25;11.73;;;4.03;;
59607;SDS011;45426;44.726;10.390;2022-09-13T17:42:51;13.40;;;3.75;;
59607;SDS011;45426;44.726;10.390;2022-09-13T17:45:16;9.73;;;3.50;;
59607;SDS011;45426;44.726;10.390;2022-09-13T17:47:42;8.45;;;3.38;;
59607;SDS011;45426;44.726;10.390;2022-09-13T17:50:08;7.93;;;3.28;;
59607;SDS011;45426;44.726;10.390;2022-09-13T17:52:33;11.25;;;3.42;;
59607;SDS011;45426;44.726;10.390;2022-09-13T17:54:59;8.40;;;3.53;;
59607;SDS011;45426;44.726;10.390;2022-09-13T17:57:24;6.47;;;2.90;;
59607;SDS011;45426;44.726;10.390;2022-09-13T17:59:49;15.23;;;4.07;;
59607;SDS011;45426;44.726;10.390;2022-09-13T18:02:16;8.07;;;3.22;;
59607;SDS011;45426;44.726;10.390;2022-09-13T18:04:41;11.73;;;5.03;;
59607;SDS011;45426;44.726;10.390;2022-09-13T18:07:07;11.23;;;4.05;;
59607;SDS011;45426;44.726;10.390;2022-09-13T18:09:32;12.60;;;4.35;;
59607;SDS011;45426;44.726;10.390;2022-09-13T18:11:57;14.30;;;4.80;;
59607;SDS011;45426;44.726;10.390;2022-09-13T18:14:23;12.80;;;4.97;;
59607;SDS011;45426;44.726;10.390;2022-09-13T18:16:50;14.20;;;4.03;;
59607;SDS011;45426;44.726;10.390;2022-09-13T18:19:21;10.02;;;3.78;;
59607;SDS011;45426;44.726;10.390;2022-09-13T18:21:47;11.65;;;4.25;;
59607;SDS011;45426;44.726;10.390;2022-09-13T18:24:12;10.18;;;4.13;;
59607;SDS011;45426;44.726;10.390;2022-09-13T18:26:38;10.52;;;4.38;;
59607;SDS011;45426;44.726;10.390;2022-09-13T18:29:05;10.77;;;3.88;;
59607;SDS011;45426;44.726;10.390;2022-09-13T18:31:34;10.68;;;4.40;;
59607;SDS011;45426;44.726;10.390;2022-09-13T18:34:01;10.75;;;3.97;;
59607;SDS011;45426;44.726;10.390;2022-09-13T18:36:29;10.85;;;4.13;;
59607;SDS011;45426;44.726;10.390;2022-09-13T18:38:57;13.75;;;4.20;;
59607;SDS011;45426;44.726;10.390;2022-09-13T18:41:24;12.50;;;4.43;;
59607;SDS011;45426;44.726;10.390;2022-09-13T18:43:52;13.52;;;5.05;;
59607;SDS011;45426;44.726;10.390;2022-09-13T18:46:19;13.05;;;5.00;;